sensor_id;sensor_type;location;lat;lon;timestamp;P1;durP1;ratioP1;P2;durP2;ratioP2
54735;SDS011;40632;51.442;11.936;2022-07-23T00:02:20;8.90;;;6.05;;
54735;SDS011;40632;51.442;11.936;2022-07-23T00:04:45;11.27;;;6.30;;
54735;SDS011;40632;51.442;11.936;2022-07-23T00:07:11;9.82;;;6.05;;
54735;SDS011;40632;51.442;11.936;2022-07-23T00:09:37;10.93;;;6.38;;
54735;SDS011;40632;51.442;11.936;2022-07-23T00:12:05;10.40;;;5.75;;
54735;SDS011;40632;51.442;11.936;2022-07-23T00:14:31;7.15;;;5.90;;
54735;SDS011;40632;51.442;11.936;2022-07-23T00:16:57;7.50;;;6.20;;
54735;SDS011;40632;51.442;11.936;2022-07-23T00:19:22;9.93;;;6.30;;
54735;SDS011;40632;51.442;11.936;2022-07-23T00:21:48;10.73;;;5.97;;
54735;SDS011;40632;51.442;11.936;2022-07-23T00:24:13;13.80;;;5.72;;
54735;SDS011;40632;51.442;11.936;2022-07-23T00:26:39;10.77;;;5.90;;
54735;SDS011;40632;51.442;11.936;2022-07-23T00:29:07;8.50;;;5.88;;
54735;SDS011;40632;51.442;11.936;2022-07-23T00:31:33;10.25;;;6.18;;
54735;SDS011;40632;51.442;11.936;2022-07-23T00:33:58;11.93;;;6.75;;
54735;SDS011;40632;51.442;11.936;2022-07-23T00:36:24;9.82;;;6.25;;
54735;SDS011;40632;51.442;11.936;2022-07-23T00:38:50;9.55;;;6.03;;
54735;SDS011;40632;51.442;11.936;2022-07-23T00:41:15;9.20;;;5.88;;
54735;SDS011;40632;51.442;11.936;2022-07-23T00:43:41;8.55;;;5.97;;
54735;SDS011;40632;51.442;11.936;2022-07-23T00:46:09;7.70;;;6.72;;
54735;SDS011;40632;51.442;11.936;2022-07-23T00:48:35;8.88;;;5.80;;
54735;SDS011;40632;51.442;11.936;2022-07-23T00:51:00;12.38;;;5.95;;
54735;SDS011;40632;51.442;11.936;2022-07-23T00:53:26;7.63;;;5.90;;
54735;SDS011;40632;51.442;11.936;2022-07-23T00:55:52;9.82;;;6.13;;
54735;SDS011;40632;51.442;11.936;2022-07-23T00:58:18;9.30;;;6.25;;
54735;SDS011;40632;51.442;11.936;2022-07-23T01:00:44;10.98;;;6.47;;
54735;SDS011;40632;51.442;11.936;2022-07-23T01:03:12;12.15;;;6.28;;
54735;SDS011;40632;51.442;11.936;2022-07-23T01:05:38;10.27;;;6.75;;
54735;SDS011;40632;51.442;11.936;2022-07-23T01:08:05;10.95;;;6.97;;
54735;SDS011;40632;51.442;11.936;2022-07-23T01:10:31;16.98;;;7.45;;
54735;SDS011;40632;51.442;11.936;2022-07-23T01:12:56;13.25;;;6.00;;
54735;SDS011;40632;51.442;11.936;2022-07-23T01:15:22;10.52;;;6.90;;
54735;SDS011;40632;51.442;11.936;2022-07-23T01:17:48;7.80;;;6.40;;
54735;SDS011;40632;51.442;11.936;2022-07-23T01:20:16;9.18;;;6.45;;
54735;SDS011;40632;51.442;11.936;2022-07-23T01:22:45;15.57;;;5.95;;
54735;SDS011;40632;51.442;11.936;2022-07-23T01:25:11;12.30;;;6.38;;
54735;SDS011;40632;51.442;11.936;2022-07-23T01:27:37;9.57;;;5.97;;
54735;SDS011;40632;51.442;11.936;2022-07-23T01:30:03;10.02;;;6.43;;
54735;SDS011;40632;51.442;11.936;2022-07-23T01:32:30;8.48;;;6.20;;
54735;SDS011;40632;51.442;11.936;2022-07-23T01:34:55;10.15;;;6.07;;
54735;SDS011;40632;51.442;11.936;2022-07-23T01:37:21;8.93;;;6.80;;
54735;SDS011;40632;51.442;11.936;2022-07-23T01:39:49;9.88;;;7.13;;
54735;SDS011;40632;51.442;11.936;2022-07-23T01:42:15;12.95;;;6.50;;
54735;SDS011;40632;51.442;11.936;2022-07-23T01:44:40;9.60;;;6.85;;
54735;SDS011;40632;51.442;11.936;2022-07-23T01:47:06;10.13;;;6.53;;
54735;SDS011;40632;51.442;11.936;2022-07-23T01:49:32;9.77;;;6.97;;
54735;SDS011;40632;51.442;11.936;2022-07-23T01:51:57;10.18;;;6.72;;
54735;SDS011;40632;51.442;11.936;2022-07-23T01:54:23;12.82;;;7.53;;
54735;SDS011;40632;51.442;11.936;2022-07-23T01:56:51;10.57;;;7.47;;
54735;SDS011;40632;51.442;11.936;2022-07-23T01:59:17;13.38;;;8.60;;
54735;SDS011;40632;51.442;11.936;2022-07-23T02:01:42;10.25;;;7.90;;
54735;SDS011;40632;51.442;11.936;2022-07-23T02:04:08;9.50;;;7.85;;
54735;SDS011;40632;51.442;11.936;2022-07-23T02:06:33;11.15;;;7.75;;
54735;SDS011;40632;51.442;11.936;2022-07-23T02:08:59;13.93;;;8.48;;
54735;SDS011;40632;51.442;11.936;2022-07-23T02:11:25;9.80;;;7.60;;
54735;SDS011;40632;51.442;11.936;2022-07-23T02:13:53;14.27;;;8.00;;
54735;SDS011;40632;51.442;11.936;2022-07-23T02:16:18;8.80;;;7.47;;
54735;SDS011;40632;51.442;11.936;2022-07-23T02:18:44;10.88;;;7.55;;
54735;SDS011;40632;51.442;11.936;2022-07-23T02:21:10;12.02;;;7.57;;
54735;SDS011;40632;51.442;11.936;2022-07-23T02:23:35;8.57;;;6.55;;
54735;SDS011;40632;51.442;11.936;2022-07-23T02:26:01;9.85;;;7.38;;
54735;SDS011;40632;51.442;11.936;2022-07-23T02:28:26;10.05;;;7.45;;
54735;SDS011;40632;51.442;11.936;2022-07-23T02:30:55;10.32;;;6.85;;
54735;SDS011;40632;51.442;11.936;2022-07-23T02:33:20;12.02;;;7.25;;
54735;SDS011;40632;51.442;11.936;2022-07-23T02:35:46;10.35;;;7.40;;
54735;SDS011;40632;51.442;11.936;2022-07-23T02:38:11;9.52;;;6.70;;
54735;SDS011;40632;51.442;11.936;2022-07-23T02:40:37;11.45;;;7.35;;
54735;SDS011;40632;51.442;11.936;2022-07-23T02:43:02;7.78;;;6.28;;
54735;SDS011;40632;51.442;11.936;2022-07-23T02:45:28;10.80;;;7.30;;
54735;SDS011;40632;51.442;11.936;2022-07-23T02:47:56;9.18;;;6.38;;
54735;SDS011;40632;51.442;11.936;2022-07-23T02:50:22;9.20;;;6.40;;
54735;SDS011;40632;51.442;11.936;2022-07-23T02:52:47;8.52;;;6.45;;
54735;SDS011;40632;51.442;11.936;2022-07-23T02:55:13;9.20;;;6.10;;
54735;SDS011;40632;51.442;11.936;2022-07-23T02:57:39;8.98;;;6.45;;
54735;SDS011;40632;51.442;11.936;2022-07-23T03:00:05;10.73;;;6.47;;
54735;SDS011;40632;51.442;11.936;2022-07-23T03:02:32;8.23;;;6.38;;
54735;SDS011;40632;51.442;11.936;2022-07-23T03:05:00;7.88;;;5.95;;
54735;SDS011;40632;51.442;11.936;2022-07-23T03:07:26;10.80;;;5.85;;
54735;SDS011;40632;51.442;11.936;2022-07-23T03:09:51;7.68;;;5.40;;
54735;SDS011;40632;51.442;11.936;2022-07-23T03:12:17;8.73;;;5.47;;
54735;SDS011;40632;51.442;11.936;2022-07-23T03:14:42;8.63;;;5.45;;
54735;SDS011;40632;51.442;11.936;2022-07-23T03:17:08;7.07;;;4.93;;
54735;SDS011;40632;51.442;11.936;2022-07-23T03:19:34;8.32;;;5.10;;
54735;SDS011;40632;51.442;11.936;2022-07-23T03:22:02;6.97;;;5.28;;
54735;SDS011;40632;51.442;11.936;2022-07-23T03:24:28;6.43;;;4.78;;
54735;SDS011;40632;51.442;11.936;2022-07-23T03:26:53;6.47;;;5.63;;
54735;SDS011;40632;51.442;11.936;2022-07-23T03:29:19;9.73;;;6.22;;
54735;SDS011;40632;51.442;11.936;2022-07-23T03:31:44;7.55;;;5.15;;
54735;SDS011;40632;51.442;11.936;2022-07-23T03:34:10;13.80;;;5.82;;
54735;SDS011;40632;51.442;11.936;2022-07-23T03:36:36;7.38;;;5.53;;
54735;SDS011;40632;51.442;11.936;2022-07-23T03:39:04;10.95;;;5.70;;
54735;SDS011;40632;51.442;11.936;2022-07-23T03:41:29;8.73;;;6.00;;
54735;SDS011;40632;51.442;11.936;2022-07-23T03:43:55;10.43;;;6.13;;
54735;SDS011;40632;51.442;11.936;2022-07-23T03:46:20;11.27;;;5.53;;
54735;SDS011;40632;51.442;11.936;2022-07-23T03:48:46;12.93;;;7.68;;
54735;SDS011;40632;51.442;11.936;2022-07-23T03:51:12;9.95;;;6.97;;
54735;SDS011;40632;51.442;11.936;2022-07-23T03:53:37;12.70;;;8.05;;
54735;SDS011;40632;51.442;11.936;2022-07-23T03:56:06;11.07;;;7.95;;
54735;SDS011;40632;51.442;11.936;2022-07-23T03:58:31;17.08;;;10.20;;
54735;SDS011;40632;51.442;11.936;2022-07-23T04:00:57;22.10;;;13.10;;
54735;SDS011;40632;51.442;11.936;2022-07-23T04:03:23;29.30;;;15.85;;
54735;SDS011;40632;51.442;11.936;2022-07-23T04:05:48;25.85;;;16.42;;
54735;SDS011;40632;51.442;11.936;2022-07-23T04:08:14;27.30;;;18.45;;
54735;SDS011;40632;51.442;11.936;2022-07-23T04:10:39;32.97;;;20.70;;
54735;SDS011;40632;51.442;11.936;2022-07-23T04:13:08;30.10;;;17.42;;
54735;SDS011;40632;51.442;11.936;2022-07-23T04:15:33;31.27;;;19.38;;
54735;SDS011;40632;51.442;11.936;2022-07-23T04:17:59;30.23;;;20.40;;
54735;SDS011;40632;51.442;11.936;2022-07-23T04:20:24;29.20;;;19.63;;
54735;SDS011;40632;51.442;11.936;2022-07-23T04:22:50;38.47;;;21.67;;
54735;SDS011;40632;51.442;11.936;2022-07-23T04:25:15;37.05;;;22.10;;
54735;SDS011;40632;51.442;11.936;2022-07-23T04:27:41;33.30;;;22.50;;
54735;SDS011;40632;51.442;11.936;2022-07-23T04:30:10;42.13;;;26.20;;
54735;SDS011;40632;51.442;11.936;2022-07-23T04:32:36;56.63;;;29.73;;
54735;SDS011;40632;51.442;11.936;2022-07-23T04:35:01;47.50;;;27.55;;
54735;SDS011;40632;51.442;11.936;2022-07-23T04:37:27;50.05;;;28.02;;
54735;SDS011;40632;51.442;11.936;2022-07-23T04:39:53;42.65;;;24.60;;
54735;SDS011;40632;51.442;11.936;2022-07-23T04:42:18;40.45;;;22.42;;
54735;SDS011;40632;51.442;11.936;2022-07-23T04:44:44;41.35;;;23.90;;
54735;SDS011;40632;51.442;11.936;2022-07-23T04:47:12;42.17;;;24.50;;
54735;SDS011;40632;51.442;11.936;2022-07-23T04:49:38;41.22;;;22.95;;
54735;SDS011;40632;51.442;11.936;2022-07-23T04:52:03;36.63;;;22.42;;
54735;SDS011;40632;51.442;11.936;2022-07-23T04:54:29;39.42;;;22.85;;
54735;SDS011;40632;51.442;11.936;2022-07-23T04:56:55;37.17;;;22.77;;
54735;SDS011;40632;51.442;11.936;2022-07-23T04:59:20;37.03;;;22.63;;
54735;SDS011;40632;51.442;11.936;2022-07-23T05:01:46;38.33;;;22.92;;
54735;SDS011;40632;51.442;11.936;2022-07-23T05:04:14;44.50;;;25.05;;
54735;SDS011;40632;51.442;11.936;2022-07-23T05:06:40;53.55;;;27.95;;
54735;SDS011;40632;51.442;11.936;2022-07-23T05:09:05;44.22;;;25.40;;
54735;SDS011;40632;51.442;11.936;2022-07-23T05:11:31;44.03;;;25.92;;
54735;SDS011;40632;51.442;11.936;2022-07-23T05:13:56;43.72;;;26.00;;
54735;SDS011;40632;51.442;11.936;2022-07-23T05:16:22;46.95;;;26.70;;
54735;SDS011;40632;51.442;11.936;2022-07-23T05:18:47;51.08;;;28.35;;
54735;SDS011;40632;51.442;11.936;2022-07-23T05:21:16;48.33;;;28.83;;
54735;SDS011;40632;51.442;11.936;2022-07-23T05:23:41;52.45;;;27.10;;
54735;SDS011;40632;51.442;11.936;2022-07-23T05:26:07;52.45;;;27.60;;
54735;SDS011;40632;51.442;11.936;2022-07-23T05:28:32;54.35;;;28.13;;
54735;SDS011;40632;51.442;11.936;2022-07-23T05:30:58;51.13;;;29.33;;
54735;SDS011;40632;51.442;11.936;2022-07-23T05:33:24;76.93;;;29.35;;
54735;SDS011;40632;51.442;11.936;2022-07-23T05:35:49;53.33;;;26.27;;
54735;SDS011;40632;51.442;11.936;2022-07-23T05:38:17;45.08;;;26.10;;
54735;SDS011;40632;51.442;11.936;2022-07-23T05:40:43;46.38;;;25.42;;
54735;SDS011;40632;51.442;11.936;2022-07-23T05:43:08;44.95;;;24.60;;
54735;SDS011;40632;51.442;11.936;2022-07-23T05:45:34;45.95;;;25.27;;
54735;SDS011;40632;51.442;11.936;2022-07-23T05:48:00;42.78;;;22.98;;
54735;SDS011;40632;51.442;11.936;2022-07-23T05:50:25;47.45;;;24.85;;
54735;SDS011;40632;51.442;11.936;2022-07-23T05:52:51;48.78;;;24.33;;
54735;SDS011;40632;51.442;11.936;2022-07-23T05:55:19;47.70;;;24.15;;
54735;SDS011;40632;51.442;11.936;2022-07-23T05:57:45;44.45;;;22.40;;
54735;SDS011;40632;51.442;11.936;2022-07-23T06:00:10;47.58;;;23.73;;
54735;SDS011;40632;51.442;11.936;2022-07-23T06:02:37;46.22;;;22.38;;
54735;SDS011;40632;51.442;11.936;2022-07-23T06:05:04;40.70;;;22.05;;
54735;SDS011;40632;51.442;11.936;2022-07-23T06:07:30;43.35;;;23.63;;
54735;SDS011;40632;51.442;11.936;2022-07-23T06:09:55;42.13;;;24.08;;
54735;SDS011;40632;51.442;11.936;2022-07-23T06:12:24;56.33;;;27.73;;
54735;SDS011;40632;51.442;11.936;2022-07-23T06:14:49;53.88;;;28.52;;
54735;SDS011;40632;51.442;11.936;2022-07-23T06:17:15;57.88;;;28.98;;
54735;SDS011;40632;51.442;11.936;2022-07-23T06:19:40;53.05;;;28.08;;
54735;SDS011;40632;51.442;11.936;2022-07-23T06:22:06;51.05;;;27.52;;
54735;SDS011;40632;51.442;11.936;2022-07-23T06:24:31;50.08;;;26.13;;
54735;SDS011;40632;51.442;11.936;2022-07-23T06:26:57;46.88;;;25.98;;
54735;SDS011;40632;51.442;11.936;2022-07-23T06:29:25;43.60;;;23.85;;
54735;SDS011;40632;51.442;11.936;2022-07-23T06:31:51;49.05;;;26.25;;
54735;SDS011;40632;51.442;11.936;2022-07-23T06:34:16;47.70;;;25.90;;
54735;SDS011;40632;51.442;11.936;2022-07-23T06:36:42;47.25;;;27.33;;
54735;SDS011;40632;51.442;11.936;2022-07-23T06:39:08;50.13;;;26.85;;
54735;SDS011;40632;51.442;11.936;2022-07-23T06:41:33;50.00;;;26.38;;
54735;SDS011;40632;51.442;11.936;2022-07-23T06:43:59;44.85;;;27.25;;
54735;SDS011;40632;51.442;11.936;2022-07-23T06:46:27;42.20;;;25.50;;
54735;SDS011;40632;51.442;11.936;2022-07-23T06:48:52;52.72;;;25.42;;
54735;SDS011;40632;51.442;11.936;2022-07-23T06:51:18;41.22;;;26.35;;
54735;SDS011;40632;51.442;11.936;2022-07-23T06:53:44;45.92;;;25.27;;
54735;SDS011;40632;51.442;11.936;2022-07-23T06:56:09;39.72;;;24.40;;
54735;SDS011;40632;51.442;11.936;2022-07-23T06:58:35;44.17;;;25.58;;
54735;SDS011;40632;51.442;11.936;2022-07-23T07:01:01;44.50;;;25.45;;
54735;SDS011;40632;51.442;11.936;2022-07-23T07:03:29;44.80;;;26.50;;
54735;SDS011;40632;51.442;11.936;2022-07-23T07:05:54;48.58;;;28.88;;
54735;SDS011;40632;51.442;11.936;2022-07-23T07:08:20;48.72;;;29.63;;
54735;SDS011;40632;51.442;11.936;2022-07-23T07:10:46;49.72;;;27.98;;
54735;SDS011;40632;51.442;11.936;2022-07-23T07:13:12;49.60;;;29.75;;
54735;SDS011;40632;51.442;11.936;2022-07-23T07:15:37;50.63;;;30.20;;
54735;SDS011;40632;51.442;11.936;2022-07-23T07:18:03;50.90;;;30.58;;
54735;SDS011;40632;51.442;11.936;2022-07-23T07:20:31;53.25;;;31.85;;
54735;SDS011;40632;51.442;11.936;2022-07-23T07:22:57;46.90;;;29.35;;
54735;SDS011;40632;51.442;11.936;2022-07-23T07:25:23;46.17;;;28.33;;
54735;SDS011;40632;51.442;11.936;2022-07-23T07:27:48;41.33;;;28.60;;
54735;SDS011;40632;51.442;11.936;2022-07-23T07:30:14;39.40;;;27.42;;
54735;SDS011;40632;51.442;11.936;2022-07-23T07:32:39;31.92;;;24.92;;
54735;SDS011;40632;51.442;11.936;2022-07-23T07:35:05;26.85;;;22.95;;
54735;SDS011;40632;51.442;11.936;2022-07-23T07:37:34;25.55;;;19.88;;
54735;SDS011;40632;51.442;11.936;2022-07-23T07:40:00;24.65;;;16.38;;
54735;SDS011;40632;51.442;11.936;2022-07-23T07:42:26;20.48;;;16.52;;
54735;SDS011;40632;51.442;11.936;2022-07-23T07:44:51;24.48;;;17.33;;
54735;SDS011;40632;51.442;11.936;2022-07-23T07:47:17;23.27;;;18.33;;
54735;SDS011;40632;51.442;11.936;2022-07-23T07:49:43;20.55;;;17.02;;
54735;SDS011;40632;51.442;11.936;2022-07-23T07:52:08;18.98;;;16.77;;
54735;SDS011;40632;51.442;11.936;2022-07-23T07:54:37;20.10;;;16.30;;
54735;SDS011;40632;51.442;11.936;2022-07-23T07:57:03;20.30;;;16.35;;
54735;SDS011;40632;51.442;11.936;2022-07-23T07:59:28;20.35;;;16.08;;
54735;SDS011;40632;51.442;11.936;2022-07-23T08:01:54;17.58;;;15.20;;
54735;SDS011;40632;51.442;11.936;2022-07-23T08:04:19;21.00;;;17.42;;
54735;SDS011;40632;51.442;11.936;2022-07-23T08:06:45;27.35;;;19.05;;
54735;SDS011;40632;51.442;11.936;2022-07-23T08:09:11;33.58;;;21.05;;
54735;SDS011;40632;51.442;11.936;2022-07-23T08:11:39;29.10;;;21.33;;
54735;SDS011;40632;51.442;11.936;2022-07-23T08:14:04;30.42;;;21.08;;
54735;SDS011;40632;51.442;11.936;2022-07-23T08:16:30;35.08;;;23.52;;
54735;SDS011;40632;51.442;11.936;2022-07-23T08:18:56;37.05;;;24.73;;
54735;SDS011;40632;51.442;11.936;2022-07-23T08:21:21;38.72;;;26.73;;
54735;SDS011;40632;51.442;11.936;2022-07-23T08:23:47;36.92;;;26.60;;
54735;SDS011;40632;51.442;11.936;2022-07-23T08:26:13;34.20;;;25.15;;
54735;SDS011;40632;51.442;11.936;2022-07-23T08:28:41;37.83;;;25.00;;
54735;SDS011;40632;51.442;11.936;2022-07-23T08:31:06;38.17;;;24.92;;
54735;SDS011;40632;51.442;11.936;2022-07-23T08:33:32;41.08;;;27.83;;
54735;SDS011;40632;51.442;11.936;2022-07-23T08:35:58;39.65;;;28.58;;
54735;SDS011;40632;51.442;11.936;2022-07-23T08:38:24;46.05;;;29.95;;
54735;SDS011;40632;51.442;11.936;2022-07-23T08:40:51;45.22;;;30.05;;
54735;SDS011;40632;51.442;11.936;2022-07-23T08:43:18;44.80;;;31.00;;
54735;SDS011;40632;51.442;11.936;2022-07-23T08:45:47;40.65;;;29.75;;
54735;SDS011;40632;51.442;11.936;2022-07-23T08:48:15;41.60;;;30.25;;
54735;SDS011;40632;51.442;11.936;2022-07-23T08:50:42;41.03;;;28.92;;
54735;SDS011;40632;51.442;11.936;2022-07-23T08:53:09;34.72;;;26.92;;
54735;SDS011;40632;51.442;11.936;2022-07-23T08:55:35;29.40;;;23.58;;
54735;SDS011;40632;51.442;11.936;2022-07-23T08:58:01;30.85;;;25.00;;
54735;SDS011;40632;51.442;11.936;2022-07-23T09:00:27;29.42;;;22.75;;
54735;SDS011;40632;51.442;11.936;2022-07-23T09:02:56;32.58;;;23.58;;
54735;SDS011;40632;51.442;11.936;2022-07-23T09:05:22;27.27;;;21.08;;
54735;SDS011;40632;51.442;11.936;2022-07-23T09:10:44;26.27;;;21.27;;
54735;SDS011;40632;51.442;11.936;2022-07-23T09:13:24;26.77;;;22.60;;
54735;SDS011;40632;51.442;11.936;2022-07-23T09:15:52;31.52;;;25.67;;
54735;SDS011;40632;51.442;11.936;2022-07-23T09:18:21;29.13;;;25.98;;
54735;SDS011;40632;51.442;11.936;2022-07-23T09:20:56;32.88;;;25.23;;
54735;SDS011;40632;51.442;11.936;2022-07-23T09:23:36;29.92;;;25.08;;
54735;SDS011;40632;51.442;11.936;2022-07-23T09:26:03;29.17;;;26.08;;
54735;SDS011;40632;51.442;11.936;2022-07-23T09:28:47;30.33;;;25.50;;
54735;SDS011;40632;51.442;11.936;2022-07-23T09:33:44;33.08;;;29.13;;
54735;SDS011;40632;51.442;11.936;2022-07-23T09:36:09;34.95;;;27.95;;
54735;SDS011;40632;51.442;11.936;2022-07-23T09:38:36;30.63;;;27.38;;
54735;SDS011;40632;51.442;11.936;2022-07-23T09:41:13;34.28;;;28.23;;
54735;SDS011;40632;51.442;11.936;2022-07-23T09:43:39;30.63;;;26.52;;
54735;SDS011;40632;51.442;11.936;2022-07-23T09:46:18;29.55;;;26.40;;
54735;SDS011;40632;51.442;11.936;2022-07-23T09:48:48;28.33;;;24.42;;
54735;SDS011;40632;51.442;11.936;2022-07-23T09:51:14;26.65;;;23.65;;
54735;SDS011;40632;51.442;11.936;2022-07-23T09:53:40;25.90;;;23.13;;
54735;SDS011;40632;51.442;11.936;2022-07-23T09:56:06;24.20;;;21.77;;
54735;SDS011;40632;51.442;11.936;2022-07-23T09:58:33;23.23;;;20.85;;
54735;SDS011;40632;51.442;11.936;2022-07-23T10:01:03;25.33;;;22.40;;
54735;SDS011;40632;51.442;11.936;2022-07-23T10:03:29;22.77;;;18.60;;
54735;SDS011;40632;51.442;11.936;2022-07-23T10:05:58;21.55;;;18.30;;
54735;SDS011;40632;51.442;11.936;2022-07-23T10:08:23;22.50;;;17.67;;
54735;SDS011;40632;51.442;11.936;2022-07-23T10:10:49;22.27;;;16.27;;
54735;SDS011;40632;51.442;11.936;2022-07-23T10:13:16;22.73;;;16.02;;
54735;SDS011;40632;51.442;11.936;2022-07-23T10:15:42;18.63;;;15.80;;
54735;SDS011;40632;51.442;11.936;2022-07-23T10:18:08;17.00;;;14.80;;
54735;SDS011;40632;51.442;11.936;2022-07-23T10:20:35;17.30;;;14.68;;
54735;SDS011;40632;51.442;11.936;2022-07-23T10:23:04;18.63;;;14.88;;
54735;SDS011;40632;51.442;11.936;2022-07-23T10:25:37;20.13;;;14.80;;
54735;SDS011;40632;51.442;11.936;2022-07-23T10:28:10;17.73;;;14.90;;
54735;SDS011;40632;51.442;11.936;2022-07-23T10:30:54;18.50;;;15.38;;
54735;SDS011;40632;51.442;11.936;2022-07-23T10:33:30;19.23;;;14.68;;
54735;SDS011;40632;51.442;11.936;2022-07-23T10:36:07;18.10;;;14.90;;
54735;SDS011;40632;51.442;11.936;2022-07-23T10:38:48;18.50;;;15.55;;
54735;SDS011;40632;51.442;11.936;2022-07-23T10:41:30;19.98;;;15.82;;
54735;SDS011;40632;51.442;11.936;2022-07-23T10:44:05;16.95;;;14.98;;
54735;SDS011;40632;51.442;11.936;2022-07-23T10:46:31;17.00;;;15.20;;
54735;SDS011;40632;51.442;11.936;2022-07-23T10:54:49;18.60;;;15.43;;
54735;SDS011;40632;51.442;11.936;2022-07-23T10:57:16;17.95;;;14.13;;
54735;SDS011;40632;51.442;11.936;2022-07-23T11:02:39;14.32;;;12.50;;
54735;SDS011;40632;51.442;11.936;2022-07-23T11:05:06;14.55;;;12.27;;
54735;SDS011;40632;51.442;11.936;2022-07-23T11:07:33;12.95;;;11.65;;
54735;SDS011;40632;51.442;11.936;2022-07-23T11:10:01;13.65;;;11.40;;
54735;SDS011;40632;51.442;11.936;2022-07-23T11:12:34;15.45;;;11.45;;
54735;SDS011;40632;51.442;11.936;2022-07-23T11:15:00;15.97;;;12.43;;
54735;SDS011;40632;51.442;11.936;2022-07-23T11:17:27;16.10;;;12.27;;
54735;SDS011;40632;51.442;11.936;2022-07-23T11:20:12;13.90;;;12.50;;
54735;SDS011;40632;51.442;11.936;2022-07-23T11:22:46;14.20;;;12.43;;
54735;SDS011;40632;51.442;11.936;2022-07-23T11:25:30;16.73;;;12.85;;
54735;SDS011;40632;51.442;11.936;2022-07-23T11:28:08;14.50;;;13.10;;
54735;SDS011;40632;51.442;11.936;2022-07-23T11:30:37;12.98;;;11.50;;
54735;SDS011;40632;51.442;11.936;2022-07-23T11:33:15;14.15;;;11.35;;
54735;SDS011;40632;51.442;11.936;2022-07-23T11:35:43;13.40;;;11.70;;
54735;SDS011;40632;51.442;11.936;2022-07-23T11:38:14;15.05;;;12.52;;
54735;SDS011;40632;51.442;11.936;2022-07-23T11:40:43;15.35;;;12.65;;
54735;SDS011;40632;51.442;11.936;2022-07-23T11:43:10;14.43;;;12.05;;
54735;SDS011;40632;51.442;11.936;2022-07-23T11:45:38;15.05;;;12.02;;
54735;SDS011;40632;51.442;11.936;2022-07-23T11:48:05;13.93;;;12.30;;
54735;SDS011;40632;51.442;11.936;2022-07-23T11:50:33;13.57;;;10.98;;
54735;SDS011;40632;51.442;11.936;2022-07-23T11:53:00;13.07;;;10.90;;
54735;SDS011;40632;51.442;11.936;2022-07-23T11:55:26;12.43;;;10.95;;
54735;SDS011;40632;51.442;11.936;2022-07-23T11:57:55;12.48;;;11.27;;
54735;SDS011;40632;51.442;11.936;2022-07-23T12:00:21;13.75;;;11.98;;
54735;SDS011;40632;51.442;11.936;2022-07-23T12:02:49;14.88;;;13.35;;
54735;SDS011;40632;51.442;11.936;2022-07-23T12:05:16;16.70;;;12.77;;
54735;SDS011;40632;51.442;11.936;2022-07-23T12:07:44;15.82;;;14.18;;
54735;SDS011;40632;51.442;11.936;2022-07-23T12:10:11;14.57;;;13.18;;
54735;SDS011;40632;51.442;11.936;2022-07-23T12:12:39;16.92;;;13.60;;
54735;SDS011;40632;51.442;11.936;2022-07-23T12:15:09;15.95;;;14.13;;
54735;SDS011;40632;51.442;11.936;2022-07-23T12:17:37;15.68;;;13.52;;
54735;SDS011;40632;51.442;11.936;2022-07-23T12:20:04;15.77;;;13.80;;
54735;SDS011;40632;51.442;11.936;2022-07-23T12:22:36;15.93;;;14.23;;
54735;SDS011;40632;51.442;11.936;2022-07-23T12:25:03;16.33;;;14.05;;
54735;SDS011;40632;51.442;11.936;2022-07-23T12:27:31;15.35;;;13.40;;
54735;SDS011;40632;51.442;11.936;2022-07-23T12:29:56;13.88;;;12.20;;
54735;SDS011;40632;51.442;11.936;2022-07-23T12:32:26;16.92;;;15.20;;
54735;SDS011;40632;51.442;11.936;2022-07-23T12:35:02;17.77;;;15.85;;
54735;SDS011;40632;51.442;11.936;2022-07-23T12:37:30;17.23;;;15.43;;
54735;SDS011;40632;51.442;11.936;2022-07-23T12:39:56;15.60;;;14.00;;
54735;SDS011;40632;51.442;11.936;2022-07-23T12:42:22;15.30;;;13.80;;
54735;SDS011;40632;51.442;11.936;2022-07-23T12:47:32;14.85;;;13.43;;
54735;SDS011;40632;51.442;11.936;2022-07-23T12:50:30;16.15;;;13.73;;
54735;SDS011;40632;51.442;11.936;2022-07-23T12:53:01;15.13;;;13.50;;
54735;SDS011;40632;51.442;11.936;2022-07-23T12:55:28;18.13;;;14.82;;
54735;SDS011;40632;51.442;11.936;2022-07-23T12:58:02;17.30;;;13.55;;
54735;SDS011;40632;51.442;11.936;2022-07-23T13:00:28;16.40;;;14.23;;
54735;SDS011;40632;51.442;11.936;2022-07-23T13:02:56;16.30;;;14.65;;
54735;SDS011;40632;51.442;11.936;2022-07-23T13:05:22;17.60;;;15.15;;
54735;SDS011;40632;51.442;11.936;2022-07-23T13:07:47;16.52;;;14.75;;
54735;SDS011;40632;51.442;11.936;2022-07-23T13:10:13;15.98;;;14.38;;
54735;SDS011;40632;51.442;11.936;2022-07-23T13:12:39;16.95;;;15.15;;
54735;SDS011;40632;51.442;11.936;2022-07-23T13:15:05;19.60;;;15.07;;
54735;SDS011;40632;51.442;11.936;2022-07-23T13:17:31;16.52;;;14.82;;
54735;SDS011;40632;51.442;11.936;2022-07-23T13:20:00;16.70;;;15.00;;
54735;SDS011;40632;51.442;11.936;2022-07-23T13:22:25;16.60;;;13.57;;
54735;SDS011;40632;51.442;11.936;2022-07-23T13:24:51;13.95;;;12.15;;
54735;SDS011;40632;51.442;11.936;2022-07-23T13:27:16;14.38;;;12.88;;
54735;SDS011;40632;51.442;11.936;2022-07-23T13:29:42;13.68;;;12.27;;
54735;SDS011;40632;51.442;11.936;2022-07-23T13:32:08;13.15;;;11.32;;
54735;SDS011;40632;51.442;11.936;2022-07-23T13:34:33;11.40;;;10.07;;
54735;SDS011;40632;51.442;11.936;2022-07-23T13:37:01;12.88;;;10.60;;
54735;SDS011;40632;51.442;11.936;2022-07-23T13:39:27;10.25;;;9.18;;
54735;SDS011;40632;51.442;11.936;2022-07-23T13:41:53;12.50;;;8.65;;
54735;SDS011;40632;51.442;11.936;2022-07-23T13:44:18;9.60;;;8.48;;
54735;SDS011;40632;51.442;11.936;2022-07-23T13:46:44;8.88;;;7.93;;
54735;SDS011;40632;51.442;11.936;2022-07-23T13:49:09;9.27;;;8.38;;
54735;SDS011;40632;51.442;11.936;2022-07-23T13:51:36;9.35;;;8.35;;
54735;SDS011;40632;51.442;11.936;2022-07-23T13:54:04;10.38;;;8.93;;
54735;SDS011;40632;51.442;11.936;2022-07-23T13:56:30;9.43;;;8.43;;
54735;SDS011;40632;51.442;11.936;2022-07-23T13:58:55;8.75;;;7.85;;
54735;SDS011;40632;51.442;11.936;2022-07-23T14:01:21;8.98;;;8.07;;
54735;SDS011;40632;51.442;11.936;2022-07-23T14:03:47;10.48;;;9.10;;
54735;SDS011;40632;51.442;11.936;2022-07-23T14:06:12;9.20;;;8.30;;
54735;SDS011;40632;51.442;11.936;2022-07-23T14:08:38;8.80;;;7.80;;
54735;SDS011;40632;51.442;11.936;2022-07-23T14:11:06;10.65;;;7.70;;
54735;SDS011;40632;51.442;11.936;2022-07-23T14:13:32;8.63;;;7.72;;
54735;SDS011;40632;51.442;11.936;2022-07-23T14:15:57;9.68;;;7.72;;
54735;SDS011;40632;51.442;11.936;2022-07-23T14:18:23;8.20;;;6.90;;
54735;SDS011;40632;51.442;11.936;2022-07-23T14:20:49;8.07;;;7.25;;
54735;SDS011;40632;51.442;11.936;2022-07-23T14:23:14;7.90;;;6.97;;
54735;SDS011;40632;51.442;11.936;2022-07-23T14:25:40;7.72;;;6.97;;
54735;SDS011;40632;51.442;11.936;2022-07-23T14:28:08;8.05;;;6.88;;
54735;SDS011;40632;51.442;11.936;2022-07-23T14:30:34;11.20;;;7.18;;
54735;SDS011;40632;51.442;11.936;2022-07-23T14:32:59;7.70;;;6.38;;